Terminal Aerodrome Forecast
Issued by NWS

Current Version | Previous Version | Text Only | Print | Product List | Glossary On
Versions: 1 2 3 4 5 6 7 8 9 10 11 12 13 14 15 16 17 18 19 20 21 22 23 24 25 26 27 28 29 30 31 32 33 34 35 36 37 38 39 40 41 42 43 44 45 46 47 48 49
000
FTUS41 KCTP 282109 AAA
TAFUNV
TAF AMD
KUNV 282109Z 2821/2918 00000KT P6SM -SHRA BKN040 OVC080
     FM290000 15003KT 5SM -SHRA OVC045
     FM290300 35002KT 2SM -SHRA BR OVC007
     FM290900 33003KT 4SM BR OVC015
     FM291500 34005KT P6SM OVC050=

USA.gov is the U.S. government's official web portal to all federal, state and local government web resources and services.